createdAt,value
2022-08-29T00:00:19.349Z,101996.06
2022-08-29T00:03:23.083Z,101991.81
2022-08-29T00:06:29.395Z,101993.59
2022-08-29T00:09:33.421Z,101993.00
2022-08-29T00:12:37.407Z,101994.88
2022-08-29T00:15:45.133Z,101989.84
2022-08-29T00:18:49.108Z,101992.63
2022-08-29T00:21:54.152Z,101989.19
2022-08-29T00:25:02.725Z,101986.66
2022-08-29T00:28:07.552Z,101991.19
2022-08-29T00:31:11.320Z,101991.28
2022-08-29T00:34:15.050Z,101995.91
2022-08-29T00:37:20.474Z,101994.28
2022-08-29T00:40:29.245Z,102000.59
2022-08-29T00:43:37.668Z,102001.63
2022-08-29T00:46:53.892Z,102003.56
2022-08-29T00:49:58.973Z,101991.34
2022-08-29T00:53:09.582Z,101987.16
2022-08-29T00:56:17.460Z,101986.53
2022-08-29T00:59:26.117Z,101986.75
2022-08-29T01:02:31.398Z,101987.06
2022-08-29T01:05:37.638Z,101987.28
2022-08-29T01:08:44.561Z,101982.97
2022-08-29T01:12:05.736Z,101980.44
2022-08-29T01:15:13.641Z,101991.97
2022-08-29T01:18:19.596Z,101994.75
2022-08-29T01:21:35.644Z,101990.28
2022-08-29T01:24:46.291Z,101993.88
2022-08-29T01:27:55.990Z,101999.22
2022-08-29T01:31:06.793Z,101995.78
2022-08-29T01:34:12.979Z,101994.25
2022-08-29T01:37:18.796Z,101982.94
2022-08-29T01:40:31.614Z,101979.53
2022-08-29T01:43:44.412Z,101983.13
2022-08-29T01:46:51.199Z,101979.63
2022-08-29T01:49:55.282Z,101976.09
2022-08-29T01:52:59.091Z,101988.56
2022-08-29T01:56:12.217Z,101988.72
2022-08-29T01:59:20.120Z,101993.22
2022-08-29T02:02:28.771Z,101998.41
2022-08-29T02:05:33.071Z,101997.56
2022-08-29T02:08:37.187Z,101998.50
2022-08-29T02:11:42.498Z,102004.69
2022-08-29T02:14:46.446Z,102000.16
2022-08-29T02:17:50.455Z,102004.47
2022-08-29T02:20:54.095Z,101997.47
2022-08-29T02:24:15.914Z,102004.44
2022-08-29T02:27:26.352Z,101986.91
2022-08-29T02:30:29.915Z,101993.88
2022-08-29T02:33:35.160Z,101985.91
2022-08-29T02:36:39.150Z,101995.63
2022-08-29T02:39:45.143Z,101995.56
2022-08-29T02:42:50.098Z,101999.06
2022-08-29T02:45:54.701Z,101998.94
2022-08-29T02:49:01.047Z,101995.31
2022-08-29T02:52:06.775Z,101993.41
2022-08-29T02:55:15.512Z,101991.53
2022-08-29T02:58:22.655Z,101992.50
2022-08-29T03:01:27.604Z,101993.41
2022-08-29T03:04:31.290Z,101988.19
2022-08-29T03:07:34.979Z,101996.00
2022-08-29T03:10:39.098Z,101992.50
2022-08-29T03:13:44.335Z,101995.03
2022-08-29T03:16:48.573Z,101999.31
2022-08-29T03:19:52.283Z,101989.56
2022-08-29T03:22:56.953Z,101993.06
2022-08-29T03:26:00.637Z,101993.03
2022-08-29T03:29:06.981Z,101996.47
2022-08-29T03:32:10.755Z,101992.00
2022-08-29T03:35:18.089Z,101988.41
2022-08-29T03:38:22.811Z,101988.41
2022-08-29T03:41:29.952Z,101989.47
2022-08-29T03:44:36.171Z,101984.19
2022-08-29T03:47:39.847Z,101992.97
2022-08-29T03:50:43.944Z,101986.69
2022-08-29T03:53:48.008Z,101983.22
2022-08-29T03:56:52.065Z,101982.44
2022-08-29T03:59:57.976Z,101990.28
2022-08-29T04:03:02.156Z,101984.97
2022-08-29T04:06:06.322Z,101985.81
2022-08-29T04:09:09.898Z,101991.97
2022-08-29T04:12:14.612Z,101992.84
2022-08-29T04:15:20.208Z,101992.88
2022-08-29T04:18:23.874Z,101992.00
2022-08-29T04:21:27.534Z,102001.66
2022-08-29T04:24:32.850Z,102004.41
2022-08-29T04:27:37.586Z,102010.47
2022-08-29T04:30:51.447Z,102005.19
2022-08-29T04:33:55.556Z,102010.31
2022-08-29T04:37:00.136Z,102008.41
2022-08-29T04:40:04.597Z,102007.34
2022-08-29T04:43:08.390Z,102011.56
2022-08-29T04:46:23.499Z,102020.13
2022-08-29T04:49:27.972Z,102015.63
2022-08-29T04:52:31.823Z,102020.75
2022-08-29T04:55:35.543Z,102021.53
2022-08-29T04:58:44.065Z,102015.22
2022-08-29T05:01:49.369Z,102025.41
2022-08-29T05:04:53.635Z,102030.75
2022-08-29T05:07:57.331Z,102019.41
2022-08-29T05:11:01.494Z,102022.28
2022-08-29T05:14:05.393Z,102033.91
2022-08-29T05:17:10.447Z,102028.44
2022-08-29T05:20:14.898Z,102026.81
2022-08-29T05:23:20.508Z,102028.94
2022-08-29T05:26:24.135Z,102027.50
2022-08-29T05:29:27.850Z,102024.88
2022-08-29T05:32:33.191Z,102034.63
2022-08-29T05:35:37.620Z,102039.63
2022-08-29T05:38:41.316Z,102036.50
2022-08-29T05:41:45.041Z,102045.00
2022-08-29T05:44:49.318Z,102052.28
2022-08-29T05:47:56.377Z,102052.97
2022-08-29T05:51:01.002Z,102056.16
2022-08-29T05:54:05.451Z,102052.56
2022-08-29T05:57:16.687Z,102063.91
2022-08-29T06:00:22.873Z,102056.50
2022-08-29T06:03:28.108Z,102056.28
2022-08-29T06:06:32.143Z,102064.72
2022-08-29T06:09:37.082Z,102065.53
2022-08-29T06:12:40.803Z,102066.00
2022-08-29T06:15:46.442Z,102065.84
2022-08-29T06:18:52.191Z,102069.03
2022-08-29T06:21:57.248Z,102058.50
2022-08-29T06:25:04.161Z,102066.09
2022-08-29T06:28:15.940Z,102066.97
2022-08-29T06:31:29.597Z,102078.94
2022-08-29T06:34:34.935Z,102070.59
2022-08-29T06:37:38.542Z,102077.44
2022-08-29T06:40:42.333Z,102086.50
2022-08-29T06:43:46.687Z,102077.31
2022-08-29T06:46:51.631Z,102077.94
2022-08-29T06:49:56.872Z,102085.28
2022-08-29T06:53:14.740Z,102084.41
2022-08-29T06:56:24.188Z,102089.34
2022-08-29T06:59:30.384Z,102088.56
2022-08-29T07:02:34.182Z,102088.50
2022-08-29T07:05:39.529Z,102088.72
2022-08-29T07:08:55.748Z,102078.88
2022-08-29T07:11:59.885Z,102082.66
2022-08-29T07:15:03.563Z,102087.88
2022-08-29T07:18:07.299Z,102088.19
2022-08-29T07:21:21.018Z,102088.38
2022-08-29T07:24:25.138Z,102081.53
2022-08-29T07:27:28.974Z,102085.44
2022-08-29T07:30:33.618Z,102080.22
2022-08-29T07:33:38.457Z,102085.53
2022-08-29T07:36:43.669Z,102085.13
2022-08-29T07:39:47.503Z,102095.41
2022-08-29T07:42:51.169Z,102085.28
2022-08-29T07:45:55.565Z,102087.63
2022-08-29T07:49:00.682Z,102089.63
2022-08-29T07:52:06.229Z,102083.63
2022-08-29T07:55:11.250Z,102093.88
2022-08-29T07:58:15.126Z,102088.81
2022-08-29T08:01:21.137Z,102088.13
2022-08-29T08:04:25.597Z,102090.63
2022-08-29T08:07:33.045Z,102094.53
2022-08-29T08:10:40.020Z,102077.31
2022-08-29T08:13:44.425Z,102083.00
2022-08-29T08:16:48.153Z,102088.72
2022-08-29T08:19:52.055Z,102087.25
2022-08-29T08:22:57.420Z,102089.59
2022-08-29T08:26:02.151Z,102094.44
2022-08-29T08:29:06.357Z,102094.78
2022-08-29T08:32:10.026Z,102079.19
2022-08-29T08:35:16.414Z,102089.59
2022-08-29T08:38:22.764Z,102098.25
2022-08-29T08:41:51.618Z,102101.16
2022-08-29T08:45:07.759Z,102107.28
2022-08-29T08:48:19.532Z,102114.69
2022-08-29T08:51:30.150Z,102109.94
2022-08-29T08:54:45.334Z,102114.88
2022-08-29T08:58:02.339Z,102106.25
2022-08-29T09:01:21.610Z,102116.81
2022-08-29T09:04:58.631Z,102120.47
2022-08-29T09:08:19.097Z,102115.00
2022-08-29T09:11:36.861Z,102109.16
2022-08-29T09:15:02.343Z,102107.78
2022-08-29T09:18:13.554Z,102111.56
2022-08-29T09:21:39.938Z,102117.06
2022-08-29T09:24:50.782Z,102118.81
2022-08-29T09:27:56.229Z,102113.78
2022-08-29T09:31:26.709Z,102105.41
2022-08-29T09:35:04.479Z,102110.16
2022-08-29T09:38:08.998Z,102119.69
2022-08-29T09:41:12.925Z,102115.88
2022-08-29T09:44:28.149Z,102112.94
2022-08-29T09:47:34.352Z,102114.84
2022-08-29T09:50:38.271Z,102102.81
2022-08-29T09:53:42.824Z,102105.50
2022-08-29T09:56:54.727Z,102114.34
2022-08-29T10:00:14.875Z,102100.38
2022-08-29T10:03:24.659Z,102097.16
2022-08-29T10:06:32.229Z,102108.47
2022-08-29T10:09:36.038Z,102105.97
2022-08-29T10:12:53.117Z,102094.25
2022-08-29T10:16:15.046Z,102095.03
2022-08-29T10:19:33.236Z,102103.72
2022-08-29T10:22:47.481Z,102099.44
2022-08-29T10:25:51.856Z,102102.69
2022-08-29T10:29:11.519Z,102109.19
2022-08-29T10:32:36.262Z,102109.72
2022-08-29T10:35:54.434Z,102125.19
2022-08-29T10:39:12.439Z,102129.97
2022-08-29T10:42:19.500Z,102121.09
2022-08-29T10:45:36.407Z,102127.03
2022-08-29T10:48:51.613Z,102119.16
2022-08-29T10:52:10.824Z,102118.00
2022-08-29T10:55:33.003Z,102115.69
2022-08-29T10:59:00.076Z,102109.06
2022-08-29T11:02:12.699Z,102114.75
2022-08-29T11:05:25.846Z,102110.09
2022-08-29T11:08:39.105Z,102111.38
2022-08-29T11:11:56.822Z,102108.47
2022-08-29T11:15:07.318Z,102115.72
2022-08-29T11:18:24.982Z,102113.06
2022-08-29T11:21:38.794Z,102108.47
2022-08-29T11:24:47.299Z,102102.75
2022-08-29T11:28:04.091Z,102113.06
2022-08-29T11:31:19.404Z,102102.72
2022-08-29T11:34:45.131Z,102107.66
2022-08-29T11:38:42.407Z,102113.25
2022-08-29T11:41:51.626Z,102115.91
2022-08-29T11:45:01.344Z,102108.84
2022-08-29T11:48:30.724Z,102107.72
2022-08-29T11:51:38.588Z,102118.19
2022-08-29T11:55:09.460Z,102117.44
2022-08-29T11:58:48.087Z,102120.41
2022-08-29T12:02:02.373Z,102123.44
2022-08-29T12:05:10.036Z,102111.94
2022-08-29T12:08:36.958Z,102119.72
2022-08-29T12:12:20.825Z,102112.56
2022-08-29T12:15:54.942Z,102115.66
2022-08-29T12:19:00.060Z,102114.78
2022-08-29T12:22:03.842Z,102112.84
2022-08-29T12:25:43.391Z,102105.44
2022-08-29T12:28:58.632Z,102107.81
2022-08-29T12:32:49.248Z,102102.75
2022-08-29T12:36:19.489Z,102093.78
2022-08-29T12:40:03.188Z,102089.34
2022-08-29T12:43:33.327Z,102094.66
2022-08-29T12:46:42.219Z,102085.69
2022-08-29T12:49:51.660Z,102092.47
2022-08-29T12:53:05.299Z,102087.25
2022-08-29T12:56:21.963Z,102080.97
2022-08-29T12:59:29.000Z,102082.03
2022-08-29T13:02:38.249Z,102089.88
2022-08-29T13:05:42.463Z,102085.41
2022-08-29T13:08:50.731Z,102088.59
2022-08-29T13:12:10.376Z,102083.75
2022-08-29T13:15:22.873Z,102073.63
2022-08-29T13:18:28.936Z,102064.97
2022-08-29T13:21:35.067Z,102068.47
2022-08-29T13:24:38.892Z,102064.19
2022-08-29T13:27:42.571Z,102069.81
2022-08-29T13:30:48.982Z,102070.94
2022-08-29T13:34:22.344Z,102057.09
2022-08-29T13:37:32.840Z,102070.38
2022-08-29T13:40:44.172Z,102060.03
2022-08-29T13:43:50.431Z,102045.06
2022-08-29T13:46:59.405Z,102059.06
2022-08-29T13:50:12.205Z,102055.53
2022-08-29T13:53:16.024Z,102057.59
2022-08-29T13:56:32.080Z,102058.06
2022-08-29T13:59:37.844Z,102058.94
2022-08-29T14:02:45.245Z,102053.75
2022-08-29T14:05:51.245Z,102052.06
2022-08-29T14:08:56.174Z,102055.91
2022-08-29T14:12:00.255Z,102052.13
2022-08-29T14:15:09.487Z,102054.50
2022-08-29T14:18:13.781Z,102047.66
2022-08-29T14:21:20.335Z,102058.84
2022-08-29T14:24:29.227Z,102048.78
2022-08-29T14:27:33.395Z,102049.66
2022-08-29T14:30:37.047Z,102044.31
2022-08-29T14:33:40.678Z,102037.19
2022-08-29T14:36:48.172Z,102044.94
2022-08-29T14:39:52.380Z,102041.91
2022-08-29T14:42:56.657Z,102038.91
2022-08-29T14:46:00.608Z,102038.66
2022-08-29T14:49:04.804Z,102037.78
2022-08-29T14:52:11.964Z,102032.47
2022-08-29T14:55:16.871Z,102036.28
2022-08-29T14:58:20.627Z,102035.47
2022-08-29T15:01:24.390Z,102032.84
2022-08-29T15:04:37.126Z,102041.72
2022-08-29T15:07:43.136Z,102039.88
2022-08-29T15:10:46.915Z,102042.75
2022-08-29T15:13:50.655Z,102027.97
2022-08-29T15:16:54.589Z,102037.66
2022-08-29T15:23:24.022Z,102025.25
2022-08-29T15:26:28.315Z,102024.09
2022-08-29T15:29:32.504Z,102022.44
2022-08-29T15:32:39.075Z,102032.66
2022-08-29T15:35:42.834Z,102029.91
2022-08-29T15:38:50.895Z,102030.09
2022-08-29T15:41:54.745Z,102038.13
2022-08-29T15:44:59.386Z,102037.06
2022-08-29T15:48:11.734Z,102034.66
2022-08-29T15:51:15.507Z,102043.47
2022-08-29T15:54:21.307Z,102037.56
2022-08-29T15:57:25.685Z,102033.28
2022-08-29T16:00:31.164Z,102048.94
2022-08-29T16:03:35.279Z,102041.91
2022-08-29T16:06:39.701Z,102038.41
2022-08-29T16:09:45.564Z,102035.72
2022-08-29T16:12:49.254Z,102037.53
2022-08-29T16:15:53.527Z,102046.25
2022-08-29T16:18:58.679Z,102035.56
2022-08-29T16:22:02.484Z,102040.72
2022-08-29T16:25:10.466Z,102045.13
2022-08-29T16:28:15.014Z,102049.00
2022-08-29T16:31:20.585Z,102037.19
2022-08-29T16:34:24.400Z,102035.28
2022-08-29T16:37:29.049Z,102036.06
2022-08-29T16:40:34.457Z,102037.78
2022-08-29T16:43:39.938Z,102034.25
2022-08-29T16:46:43.627Z,102031.47
2022-08-29T16:49:48.308Z,102032.31
2022-08-29T16:52:52.063Z,102028.91
2022-08-29T16:55:57.079Z,102030.19
2022-08-29T16:59:01.986Z,102033.00
2022-08-29T17:02:06.151Z,102026.00
2022-08-29T17:05:10.707Z,102028.16
2022-08-29T17:08:13.201Z,102028.53
2022-08-29T17:11:17.086Z,102037.47
2022-08-29T17:14:21.617Z,102042.66
2022-08-29T17:17:25.286Z,102038.59
2022-08-29T17:20:29.299Z,102033.66
2022-08-29T17:23:36.142Z,102033.81
2022-08-29T17:26:45.830Z,102032.09
2022-08-29T17:29:49.455Z,102028.06
2022-08-29T17:32:53.268Z,102032.13
2022-08-29T17:35:57.316Z,102028.94
2022-08-29T17:39:00.984Z,102038.88
2022-08-29T17:42:07.018Z,102037.50
2022-08-29T17:45:11.511Z,102039.81
2022-08-29T17:48:16.445Z,102036.91
2022-08-29T17:51:20.150Z,102042.59
2022-08-29T17:54:26.930Z,102033.63
2022-08-29T17:57:33.144Z,102038.56
2022-08-29T18:00:37.333Z,102045.34
2022-08-29T18:03:41.047Z,102045.53
2022-08-29T18:06:45.346Z,102048.81
2022-08-29T18:09:49.290Z,102054.75
2022-08-29T18:12:54.484Z,102061.09
2022-08-29T18:15:58.078Z,102053.53
2022-08-29T18:19:02.439Z,102073.56
2022-08-29T18:22:06.512Z,102072.28
2022-08-29T18:25:11.515Z,102083.25
2022-08-29T18:28:16.756Z,102085.59
2022-08-29T18:31:20.672Z,102091.34
2022-08-29T18:34:26.030Z,102092.50
2022-08-29T18:37:29.806Z,102097.41
2022-08-29T18:40:36.425Z,102102.16
2022-08-29T18:43:44.754Z,102104.25
2022-08-29T18:46:48.639Z,102094.94
2022-08-29T18:50:09.651Z,102101.41
2022-08-29T18:53:17.393Z,102098.13
2022-08-29T18:56:21.045Z,102108.16
2022-08-29T18:59:29.186Z,102114.69
2022-08-29T19:02:33.082Z,102116.84
2022-08-29T19:05:41.176Z,102126.88
2022-08-29T19:08:45.076Z,102131.41
2022-08-29T19:11:48.851Z,102128.22
2022-08-29T19:14:53.955Z,102129.28
2022-08-29T19:17:58.426Z,102132.94
2022-08-29T19:21:06.463Z,102136.78
2022-08-29T19:24:10.604Z,102128.09
2022-08-29T19:27:32.788Z,102135.47
2022-08-29T19:30:39.790Z,102144.56
2022-08-29T19:33:43.703Z,102142.09
2022-08-29T19:36:47.685Z,102146.75
2022-08-29T19:39:51.623Z,102148.59
2022-08-29T19:42:55.898Z,102146.25
2022-08-29T19:46:03.311Z,102148.16
2022-08-29T19:52:15.897Z,102147.69
2022-08-29T19:55:23.375Z,102152.28
2022-08-29T19:58:32.151Z,102145.47
2022-08-29T20:01:37.533Z,102157.16
2022-08-29T20:04:41.705Z,102158.06
2022-08-29T20:07:46.998Z,102160.94
2022-08-29T20:10:51.327Z,102165.53
2022-08-29T20:13:58.022Z,102166.63
2022-08-29T20:17:08.016Z,102165.94
2022-08-29T20:20:17.683Z,102183.72
2022-08-29T20:23:23.079Z,102174.22
2022-08-29T20:26:30.005Z,102170.69
2022-08-29T20:32:39.011Z,102179.78
2022-08-29T20:36:00.125Z,102182.56
2022-08-29T20:39:03.789Z,102188.13
2022-08-29T20:42:08.395Z,102185.63
2022-08-29T20:45:12.872Z,102194.53
2022-08-29T20:48:18.334Z,102194.53
2022-08-29T20:51:23.844Z,102194.53
2022-08-29T20:54:27.478Z,102188.53
2022-08-29T20:57:31.084Z,102199.31
2022-08-29T21:00:34.990Z,102207.34
2022-08-29T21:03:57.199Z,102203.91
2022-08-29T21:07:04.401Z,102211.13
2022-08-29T21:10:10.686Z,102214.81
2022-08-29T21:13:14.835Z,102216.75
2022-08-29T21:16:19.168Z,102213.41
2022-08-29T21:19:27.388Z,102204.66
2022-08-29T21:22:31.307Z,102211.78
2022-08-29T21:25:36.021Z,102205.78
2022-08-29T21:28:39.725Z,102220.03
2022-08-29T21:31:43.945Z,102215.81
2022-08-29T21:34:49.431Z,102217.63
2022-08-29T21:37:54.019Z,102207.94
2022-08-29T21:40:58.737Z,102202.81
2022-08-29T21:44:02.396Z,102209.09
2022-08-29T21:47:07.124Z,102204.03
2022-08-29T21:50:12.843Z,102218.38
2022-08-29T21:53:16.634Z,102214.06
2022-08-29T21:56:20.955Z,102218.78
2022-08-29T21:59:27.950Z,102217.16
2022-08-29T22:02:32.593Z,102234.16
2022-08-29T22:05:40.718Z,102232.59
2022-08-29T22:08:48.074Z,102228.38
2022-08-29T22:11:51.958Z,102225.22
2022-08-29T22:15:13.164Z,102236.75
2022-08-29T22:18:18.039Z,102227.22
2022-08-29T22:21:23.569Z,102228.34
2022-08-29T22:24:27.199Z,102234.78
2022-08-29T22:27:35.735Z,102222.50
2022-08-29T22:30:40.302Z,102223.41
2022-08-29T22:33:44.023Z,102210.19
2022-08-29T22:36:49.306Z,102213.94
2022-08-29T22:39:52.912Z,102218.53
2022-08-29T22:42:57.676Z,102215.09
2022-08-29T22:46:20.849Z,102211.63
2022-08-29T22:49:27.653Z,102203.84
2022-08-29T22:52:38.520Z,102209.97
2022-08-29T22:55:42.537Z,102210.03
2022-08-29T22:58:49.756Z,102203.94
2022-08-29T23:01:54.017Z,102211.06
2022-08-29T23:04:57.787Z,102213.75
2022-08-29T23:08:02.936Z,102220.03
2022-08-29T23:11:07.738Z,102219.19
2022-08-29T23:14:12.627Z,102218.50
2022-08-29T23:17:18.642Z,102216.97
2022-08-29T23:20:22.476Z,102214.41
2022-08-29T23:23:34.455Z,102222.50
2022-08-29T23:26:38.570Z,102213.72
2022-08-29T23:29:42.386Z,102215.56
2022-08-29T23:32:47.164Z,102218.25
2022-08-29T23:35:52.240Z,102214.91
2022-08-29T23:38:57.319Z,102208.91
2022-08-29T23:42:00.955Z,102213.34
2022-08-29T23:45:05.083Z,102218.78
2022-08-29T23:48:08.784Z,102217.13
2022-08-29T23:51:15.235Z,102221.56
2022-08-29T23:54:20.384Z,102223.34
2022-08-29T23:57:24.019Z,102220.84
